createdAt,value
2023-12-11T00:04:09.698Z,94730.75
2023-12-11T00:09:13.274Z,94742.03
2023-12-11T00:14:16.536Z,94744.72
2023-12-11T00:19:21.385Z,94750.94
2023-12-11T00:24:25.205Z,94764.50
2023-12-11T00:29:27.608Z,94757.88
2023-12-11T00:34:30.311Z,94784.25
2023-12-11T00:39:35.733Z,94774.56
2023-12-11T00:44:39.251Z,94768.34
2023-12-11T00:49:42.349Z,94766.81
2023-12-11T00:54:46.147Z,94753.63
2023-12-11T00:59:49.575Z,94752.06
2023-12-11T01:04:51.789Z,94763.31
2023-12-11T01:09:55.604Z,94769.13
2023-12-11T01:14:58.716Z,94771.84
2023-12-11T01:20:02.655Z,94775.31
2023-12-11T01:25:06.570Z,94756.72
2023-12-11T01:30:08.844Z,94757.88
2023-12-11T01:35:12.069Z,94742.34
2023-12-11T01:40:15.864Z,94751.28
2023-12-11T01:45:17.848Z,94745.06
2023-12-11T01:50:19.556Z,94759.03
2023-12-11T01:55:22.064Z,94766.38
2023-12-11T02:00:25.360Z,94764.06
2023-12-11T02:05:28.324Z,94768.69
2023-12-11T02:10:30.312Z,94757.06
2023-12-11T02:15:42.774Z,94756.66
2023-12-11T02:20:46.808Z,94763.28
2023-12-11T02:26:01.600Z,94788.50
2023-12-11T02:31:04.518Z,94766.41
2023-12-11T02:36:08.177Z,94769.88
2023-12-11T02:41:10.000Z,94792.38
2023-12-11T02:46:12.638Z,94788.47
2023-12-11T02:51:17.760Z,94798.19
2023-12-11T02:56:19.567Z,94775.28
2023-12-11T03:01:21.426Z,94784.59
2023-12-11T03:06:23.839Z,94778.78
2023-12-11T03:11:25.568Z,94778.00
2023-12-11T03:16:27.286Z,94772.53
2023-12-11T03:21:29.167Z,94788.81
2023-12-11T03:26:30.842Z,94789.97
2023-12-11T03:31:32.689Z,94797.31
2023-12-11T03:36:35.075Z,94815.56
2023-12-11T03:41:38.790Z,94819.41
2023-12-11T03:46:41.333Z,94808.53
2023-12-11T03:51:46.875Z,94800.75
2023-12-11T03:56:48.862Z,94800.75
2023-12-11T04:01:50.679Z,94795.69
2023-12-11T04:06:52.907Z,94786.41
2023-12-11T04:11:54.761Z,94781.00
2023-12-11T04:16:56.424Z,94782.56
2023-12-11T04:21:58.325Z,94785.69
2023-12-11T04:27:01.201Z,94776.34
2023-12-11T04:32:03.106Z,94789.56
2023-12-11T04:37:04.784Z,94799.66
2023-12-11T04:42:06.736Z,94799.25
2023-12-11T04:47:08.846Z,94798.88
2023-12-11T04:52:11.381Z,94783.38
2023-12-11T04:57:13.578Z,94784.91
2023-12-11T05:02:15.652Z,94783.72
2023-12-11T05:07:17.931Z,94777.88
2023-12-11T05:12:19.966Z,94766.22
2023-12-11T05:17:21.916Z,94771.28
2023-12-11T05:22:23.891Z,94769.31
2023-12-11T05:27:25.752Z,94763.47
2023-12-11T05:32:28.004Z,94768.53
2023-12-11T05:37:30.008Z,94772.44
2023-12-11T05:42:31.785Z,94789.09
2023-12-11T05:47:33.816Z,94793.38
2023-12-11T05:52:35.618Z,94804.63
2023-12-11T05:57:37.295Z,94807.72
2023-12-11T06:02:39.046Z,94813.16
2023-12-11T06:07:41.060Z,94807.34
2023-12-11T06:12:42.856Z,94811.63
2023-12-11T06:17:44.614Z,94812.03
2023-12-11T06:22:49.468Z,94808.53
2023-12-11T06:27:52.970Z,94796.09
2023-12-11T06:32:54.840Z,94805.03
2023-12-11T06:37:56.651Z,94792.19
2023-12-11T06:42:58.461Z,94799.59
2023-12-11T06:48:00.246Z,94788.69
2023-12-11T06:53:01.920Z,94772.75
2023-12-11T06:58:04.224Z,94765.38
2023-12-11T07:03:06.981Z,94763.78
2023-12-11T07:08:08.795Z,94764.94
2023-12-11T07:13:10.505Z,94754.03
2023-12-11T07:18:15.007Z,94752.47
2023-12-11T07:23:16.798Z,94772.63
2023-12-11T07:28:18.438Z,94787.38
2023-12-11T07:33:20.172Z,94778.00
2023-12-11T07:38:21.893Z,94772.94
2023-12-11T07:43:23.747Z,94755.81
2023-12-11T07:48:26.263Z,94729.78
2023-12-11T07:53:28.998Z,94738.75
2023-12-11T07:58:30.997Z,94730.97
2023-12-11T08:03:32.684Z,94727.47
2023-12-11T08:08:36.602Z,94712.31
2023-12-11T08:13:38.223Z,94710.41
2023-12-11T08:18:41.799Z,94704.97
2023-12-11T08:23:52.161Z,94731.41
2023-12-11T08:28:54.703Z,94719.81
2023-12-11T08:33:57.682Z,94717.81
2023-12-11T08:38:59.343Z,94711.19
2023-12-11T08:44:01.052Z,94708.38
2023-12-11T08:49:02.793Z,94700.88
2023-12-11T08:54:04.526Z,94708.16
2023-12-11T08:59:06.166Z,94701.47
2023-12-11T09:04:07.868Z,94698.31
2023-12-11T09:09:09.804Z,94697.88
2023-12-11T09:14:11.407Z,94693.97
2023-12-11T09:19:13.276Z,94693.59
2023-12-11T09:24:15.152Z,94706.44
2023-12-11T09:29:16.851Z,94697.88
2023-12-11T09:34:18.822Z,94708.75
2023-12-11T09:39:20.762Z,94705.28
2023-12-11T09:44:22.868Z,94685.94
2023-12-11T09:49:27.839Z,94691.84
2023-12-11T09:54:31.082Z,94673.53
2023-12-11T09:59:33.049Z,94661.13
2023-12-11T10:04:35.051Z,94661.91
2023-12-11T10:09:36.786Z,94652.97
2023-12-11T10:14:38.521Z,94640.56
2023-12-11T10:19:40.344Z,94643.28
2023-12-11T10:24:45.267Z,94649.44
2023-12-11T10:29:47.389Z,94637.31
2023-12-11T10:34:51.697Z,94650.13
2023-12-11T10:39:57.921Z,94635.66
2023-12-11T10:45:00.431Z,94633.81
2023-12-11T10:50:03.905Z,94635.25
2023-12-11T10:55:05.990Z,94626.28
2023-12-11T11:00:09.025Z,94622.72
2023-12-11T11:05:13.131Z,94616.97
2023-12-11T11:10:21.416Z,94625.06
2023-12-11T11:15:24.563Z,94629.63
2023-12-11T11:20:53.447Z,94648.91
2023-12-11T11:25:55.688Z,94655.19
2023-12-11T11:30:57.855Z,94657.16
2023-12-11T11:36:00.425Z,94646.19
2023-12-11T11:41:03.518Z,94631.88
2023-12-11T11:46:05.476Z,94617.75
2023-12-11T11:51:08.037Z,94631.75
2023-12-11T11:56:10.830Z,94628.78
2023-12-11T12:01:13.372Z,94634.16
2023-12-11T12:06:18.412Z,94624.81
2023-12-11T12:11:20.876Z,94628.63
2023-12-11T12:16:30.264Z,94618.84
2023-12-11T12:21:33.952Z,94626.19
2023-12-11T12:26:37.522Z,94627.91
2023-12-11T12:31:40.707Z,94629.38
2023-12-11T12:36:44.124Z,94634.84
2023-12-11T12:41:52.153Z,94626.63
2023-12-11T12:47:04.376Z,94625.66
2023-12-11T12:52:06.916Z,94630.63
2023-12-11T12:57:08.867Z,94629.66
2023-12-11T13:02:18.738Z,94634.38
2023-12-11T13:07:27.245Z,94635.84
2023-12-11T13:12:28.860Z,94628.72
2023-12-11T13:17:30.817Z,94629.50
2023-12-11T13:22:32.501Z,94635.94
2023-12-11T13:27:34.261Z,94628.91
2023-12-11T13:32:36.051Z,94634.72
2023-12-11T13:37:38.937Z,94649.97
2023-12-11T13:42:41.083Z,94643.28
2023-12-11T13:47:42.735Z,94657.41
2023-12-11T13:52:44.440Z,94661.91
2023-12-11T13:57:47.194Z,94652.16
2023-12-11T14:03:00.837Z,94668.09
2023-12-11T14:08:06.412Z,94669.56
2023-12-11T14:13:13.689Z,94683.19
2023-12-11T14:18:15.746Z,94695.47
2023-12-11T14:23:17.528Z,94709.91
2023-12-11T14:28:19.441Z,94722.41
2023-12-11T14:33:22.683Z,94727.00
2023-12-11T14:38:24.795Z,94734.28
2023-12-11T14:43:26.700Z,94726.84
2023-12-11T14:48:28.856Z,94726.06
2023-12-11T14:53:30.498Z,94731.06
2023-12-11T14:58:35.955Z,94729.56
2023-12-11T15:03:37.672Z,94731.44
2023-12-11T15:08:40.781Z,94733.03
2023-12-11T15:13:44.017Z,94731.16
2023-12-11T15:18:49.020Z,94739.69
2023-12-11T15:23:52.415Z,94739.72
2023-12-11T15:28:55.482Z,94755.25
2023-12-11T15:33:57.363Z,94757.28
2023-12-11T15:38:59.579Z,94776.78
2023-12-11T15:44:01.149Z,94778.00
2023-12-11T15:49:02.878Z,94780.41
2023-12-11T15:54:04.808Z,94786.69
2023-12-11T15:59:06.424Z,94774.28
2023-12-11T16:04:08.354Z,94773.66
2023-12-11T16:09:12.230Z,94768.97
2023-12-11T16:14:14.763Z,94782.75
2023-12-11T16:19:16.932Z,94768.75
2023-12-11T16:24:19.261Z,94775.69
2023-12-11T16:29:22.192Z,94795.94
2023-12-11T16:34:24.773Z,94791.97
2023-12-11T16:39:27.011Z,94811.56
2023-12-11T16:44:28.779Z,94810.44
2023-12-11T16:49:31.659Z,94828.44
2023-12-11T16:54:35.044Z,94819.84
2023-12-11T16:59:37.147Z,94822.56
2023-12-11T17:04:39.005Z,94826.88
2023-12-11T17:09:40.944Z,94818.75
2023-12-11T17:14:43.566Z,94848.72
2023-12-11T17:19:45.200Z,94844.41
2023-12-11T17:24:46.959Z,94849.97
2023-12-11T17:29:48.991Z,94844.41
2023-12-11T17:34:50.828Z,94841.25
2023-12-11T17:39:54.748Z,94845.59
2023-12-11T17:44:56.719Z,94850.59
2023-12-11T17:49:59.113Z,94861.44
2023-12-11T17:55:00.908Z,94872.03
2023-12-11T18:00:02.702Z,94871.59
2023-12-11T18:05:06.594Z,94893.06
2023-12-11T18:10:13.681Z,94896.13
2023-12-11T18:15:15.861Z,94880.97
2023-12-11T18:20:17.926Z,94886.84
2023-12-11T18:25:19.799Z,94892.31
2023-12-11T18:30:21.797Z,94890.41
2023-12-11T18:35:24.148Z,94917.56
2023-12-11T18:40:26.862Z,94916.91
2023-12-11T18:45:29.907Z,94904.03
2023-12-11T18:50:32.691Z,94918.06
2023-12-11T18:55:34.944Z,94930.47
2023-12-11T19:00:36.752Z,94933.53
2023-12-11T19:05:38.499Z,94924.19
2023-12-11T19:10:40.254Z,94937.03
2023-12-11T19:15:41.816Z,94947.91
2023-12-11T19:20:43.521Z,94950.69
2023-12-11T19:25:46.038Z,94947.50
2023-12-11T19:30:48.270Z,94952.19
2023-12-11T19:35:50.972Z,94951.41
2023-12-11T19:40:52.628Z,94952.59
2023-12-11T19:45:54.825Z,94970.94
2023-12-11T19:50:57.289Z,94971.38
2023-12-11T19:55:59.267Z,94979.13
2023-12-11T20:01:01.009Z,94973.28
2023-12-11T20:06:03.093Z,94969.81
2023-12-11T20:11:05.481Z,94993.16
2023-12-11T20:16:07.892Z,94994.31
2023-12-11T20:21:09.582Z,94990.00
2023-12-11T20:26:14.870Z,94999.75
2023-12-11T20:31:18.021Z,95019.94
2023-12-11T20:36:22.174Z,95035.09
2023-12-11T20:41:25.981Z,95028.09
2023-12-11T20:46:27.936Z,95060.38
2023-12-11T20:51:30.055Z,95054.53
2023-12-11T20:56:33.389Z,95065.81
2023-12-11T21:01:37.189Z,95067.38
2023-12-11T21:06:40.107Z,95080.56
2023-12-11T21:11:42.402Z,95096.13
2023-12-11T21:16:45.780Z,95082.13
2023-12-11T21:21:47.939Z,95080.97
2023-12-11T21:26:49.594Z,95078.63
2023-12-11T21:31:51.539Z,95075.50
2023-12-11T21:36:53.942Z,95074.72
2023-12-11T21:41:56.303Z,95076.66
2023-12-11T21:46:59.595Z,95076.66
2023-12-11T21:52:02.675Z,95103.91
2023-12-11T21:57:04.819Z,95086.41
2023-12-11T22:02:06.602Z,95093.03
2023-12-11T22:07:08.356Z,95109.78
2023-12-11T22:12:10.489Z,95108.97
2023-12-11T22:17:13.264Z,95122.59
2023-12-11T22:22:15.678Z,95132.28
2023-12-11T22:27:17.511Z,95152.53
2023-12-11T22:32:19.192Z,95164.59
2023-12-11T22:37:20.857Z,95176.63
2023-12-11T22:42:22.698Z,95166.91
2023-12-11T22:47:24.293Z,95186.38
2023-12-11T22:52:26.262Z,95176.28
2023-12-11T22:57:28.517Z,95182.88
2023-12-11T23:02:30.685Z,95188.72
2023-12-11T23:07:33.334Z,95182.88
2023-12-11T23:12:35.455Z,95166.50
2023-12-11T23:17:37.586Z,95163.38
2023-12-11T23:22:39.221Z,95175.41
2023-12-11T23:27:41.364Z,95166.84
2023-12-11T23:32:43.264Z,95156.75
2023-12-11T23:37:45.006Z,95156.75
2023-12-11T23:42:46.680Z,95159.13
2023-12-11T23:47:48.429Z,95170.78
2023-12-11T23:52:50.057Z,95162.66
2023-12-11T23:57:51.640Z,95159.56
